createdAt,value
2018-03-08T00:00:15.201Z,154.40
2018-03-08T00:00:51.767Z,146.30
2018-03-08T00:01:25.641Z,144.60
2018-03-08T00:02:02.280Z,136.80
2018-03-08T00:02:36.137Z,144.43
2018-03-08T00:03:10.015Z,149.90
2018-03-08T00:03:44.288Z,131.23
2018-03-08T00:04:19.991Z,140.75
2018-03-08T00:04:53.852Z,132.05
2018-03-08T00:05:27.726Z,135.07
2018-03-08T00:06:01.609Z,145.30
2018-03-08T00:06:35.473Z,143.80
2018-03-08T00:07:09.360Z,138.80
2018-03-08T00:07:43.230Z,131.15
2018-03-08T00:08:17.096Z,150.73
2018-03-08T00:08:50.969Z,137.57
2018-03-08T00:09:24.843Z,140.73
2018-03-08T00:09:58.717Z,149.62
2018-03-08T00:10:32.594Z,140.05
2018-03-08T00:11:06.481Z,131.60
2018-03-08T00:11:40.354Z,136.65
2018-03-08T00:12:14.225Z,147.65
2018-03-08T00:12:48.090Z,134.55
2018-03-08T00:13:24.111Z,133.37
2018-03-08T00:13:57.984Z,130.98
2018-03-08T00:14:31.850Z,148.30
2018-03-08T00:15:05.704Z,142.80
2018-03-08T00:15:39.586Z,132.75
2018-03-08T00:16:13.484Z,145.23
2018-03-08T00:16:47.358Z,143.43
2018-03-08T00:17:21.214Z,139.20
2018-03-08T00:17:55.313Z,132.07
2018-03-08T00:18:29.184Z,148.50
2018-03-08T00:19:03.053Z,132.07
2018-03-08T00:19:36.928Z,136.55
2018-03-08T00:20:10.797Z,129.48
2018-03-08T00:20:44.661Z,127.50
2018-03-08T00:21:18.538Z,141.60
2018-03-08T00:21:52.411Z,139.98
2018-03-08T00:22:26.285Z,130.73
2018-03-08T00:23:00.138Z,135.85
2018-03-08T00:23:33.993Z,130.73
2018-03-08T00:24:07.857Z,136.50
2018-03-08T00:24:44.074Z,144.10
2018-03-08T00:25:20.632Z,132.87
2018-03-08T00:25:56.876Z,133.27
2018-03-08T00:26:34.028Z,139.35
2018-03-08T00:27:10.855Z,132.82
2018-03-08T00:27:47.606Z,129.98
2018-03-08T00:28:21.457Z,143.93
2018-03-08T00:28:55.318Z,137.77
2018-03-08T00:29:31.695Z,145.00
2018-03-08T00:30:07.825Z,139.57
2018-03-08T00:30:44.428Z,135.25
2018-03-08T00:31:19.355Z,133.80
2018-03-08T00:31:56.358Z,123.55
2018-03-08T00:32:30.219Z,131.80
2018-03-08T00:33:04.092Z,139.95
2018-03-08T00:33:37.966Z,134.50
2018-03-08T00:34:11.856Z,137.15
2018-03-08T00:34:45.757Z,139.43
2018-03-08T00:35:19.620Z,135.20
2018-03-08T00:35:53.483Z,134.18
2018-03-08T00:36:27.481Z,129.93
2018-03-08T00:37:01.376Z,132.12
2018-03-08T00:37:35.230Z,143.25
2018-03-08T00:38:09.168Z,142.07
2018-03-08T00:38:43.045Z,136.02
2018-03-08T00:39:16.921Z,133.12
2018-03-08T00:39:50.793Z,141.95
2018-03-08T00:40:24.664Z,133.87
2018-03-08T00:40:58.515Z,150.87
2018-03-08T00:41:32.394Z,132.00
2018-03-08T00:42:06.291Z,131.52
2018-03-08T00:42:40.225Z,136.10
2018-03-08T00:43:14.096Z,124.65
2018-03-08T00:43:47.964Z,135.68
2018-03-08T00:44:22.039Z,127.97
2018-03-08T00:44:55.912Z,147.10
2018-03-08T00:45:29.773Z,143.25
2018-03-08T00:46:03.652Z,122.32
2018-03-08T00:46:37.507Z,133.48
2018-03-08T00:47:11.390Z,134.63
2018-03-08T00:47:45.267Z,135.25
2018-03-08T00:48:19.140Z,136.77
2018-03-08T00:48:53.022Z,136.15
2018-03-08T00:49:26.876Z,137.52
2018-03-08T00:50:01.383Z,123.78
2018-03-08T00:50:35.372Z,131.75
2018-03-08T00:51:09.239Z,138.27
2018-03-08T00:51:43.110Z,133.63
2018-03-08T00:52:17.017Z,128.95
2018-03-08T00:52:50.889Z,127.62
2018-03-08T00:53:25.179Z,133.52
2018-03-08T00:53:59.050Z,135.10
2018-03-08T00:54:32.912Z,135.10
2018-03-08T00:55:06.780Z,135.50
2018-03-08T00:55:41.948Z,123.07
2018-03-08T00:56:18.078Z,132.90
2018-03-08T00:56:51.953Z,140.80
2018-03-08T00:57:25.844Z,131.55
2018-03-08T00:58:02.044Z,129.77
2018-03-08T00:58:35.904Z,137.80
2018-03-08T00:59:09.778Z,139.75
2018-03-08T00:59:43.738Z,123.40
2018-03-08T01:00:17.608Z,139.43
2018-03-08T01:00:51.476Z,136.43
2018-03-08T01:01:25.349Z,130.32
2018-03-08T01:01:59.222Z,127.10
2018-03-08T01:02:33.113Z,128.73
2018-03-08T01:03:07.043Z,123.43
2018-03-08T01:03:40.908Z,131.10
2018-03-08T01:04:15.598Z,125.78
2018-03-08T01:04:49.476Z,121.05
2018-03-08T01:05:23.339Z,131.23
2018-03-08T01:05:57.207Z,138.98
2018-03-08T01:06:31.064Z,129.25
2018-03-08T01:07:04.913Z,135.88
2018-03-08T01:07:38.990Z,137.37
2018-03-08T01:08:12.863Z,128.40
2018-03-08T01:08:46.726Z,138.77
2018-03-08T01:09:20.599Z,134.87
2018-03-08T01:09:54.463Z,135.57
2018-03-08T01:10:28.337Z,134.25
2018-03-08T01:11:02.362Z,135.90
2018-03-08T01:11:36.216Z,129.00
2018-03-08T01:12:10.089Z,141.37
2018-03-08T01:12:43.964Z,131.65
2018-03-08T01:13:17.831Z,130.00
2018-03-08T01:13:51.736Z,132.75
2018-03-08T01:14:25.615Z,140.18
2018-03-08T01:14:59.492Z,133.35
2018-03-08T01:15:33.353Z,141.27
2018-03-08T01:16:07.224Z,137.05
2018-03-08T01:16:41.083Z,131.90
2018-03-08T01:17:15.006Z,146.95
2018-03-08T01:17:48.884Z,132.00
2018-03-08T01:18:22.750Z,140.68
2018-03-08T01:18:56.612Z,137.00
2018-03-08T01:19:30.484Z,135.32
2018-03-08T01:20:04.354Z,141.62
2018-03-08T01:20:38.222Z,132.57
2018-03-08T01:21:12.087Z,147.62
2018-03-08T01:21:45.970Z,130.68
2018-03-08T01:22:19.853Z,139.77
2018-03-08T01:22:53.734Z,142.45
2018-03-08T01:23:27.623Z,129.87
2018-03-08T01:24:01.512Z,144.73
2018-03-08T01:24:35.382Z,139.90
2018-03-08T01:25:09.234Z,142.15
2018-03-08T01:25:43.101Z,130.50
2018-03-08T01:26:16.961Z,144.20
2018-03-08T01:26:50.825Z,146.80
2018-03-08T01:27:24.688Z,141.40
2018-03-08T01:27:58.568Z,146.55
2018-03-08T01:28:32.436Z,132.65
2018-03-08T01:29:06.305Z,127.75
2018-03-08T01:29:40.189Z,137.05
2018-03-08T01:30:14.050Z,131.90
2018-03-08T01:30:47.915Z,136.45
2018-03-08T01:31:21.769Z,140.05
2018-03-08T01:31:55.637Z,147.57
2018-03-08T01:32:29.564Z,125.32
2018-03-08T01:33:03.453Z,130.27
2018-03-08T01:33:37.313Z,133.10
2018-03-08T01:34:11.160Z,140.23
2018-03-08T01:34:45.027Z,144.87
2018-03-08T01:35:18.929Z,148.07
2018-03-08T01:35:54.602Z,140.25
2018-03-08T01:36:28.467Z,131.95
2018-03-08T01:37:02.370Z,143.10
2018-03-08T01:37:36.236Z,139.45
2018-03-08T01:38:10.124Z,134.60
2018-03-08T01:38:43.983Z,151.50
2018-03-08T01:39:17.877Z,149.87
2018-03-08T01:39:52.047Z,130.32
2018-03-08T01:40:25.936Z,143.40
2018-03-08T01:40:59.823Z,134.85
2018-03-08T01:41:33.693Z,138.12
2018-03-08T01:42:07.565Z,142.75
2018-03-08T01:42:41.425Z,137.40
2018-03-08T01:43:15.299Z,140.05
2018-03-08T01:43:49.182Z,125.43
2018-03-08T01:44:23.059Z,133.75
2018-03-08T01:44:56.949Z,131.25
2018-03-08T01:45:30.824Z,140.70
2018-03-08T01:46:04.696Z,136.95
2018-03-08T01:46:38.560Z,133.70
2018-03-08T01:47:12.435Z,135.88
2018-03-08T01:47:46.513Z,126.90
2018-03-08T01:48:20.415Z,132.25
2018-03-08T01:48:54.301Z,133.73
2018-03-08T01:49:28.175Z,131.77
2018-03-08T01:50:02.031Z,136.15
2018-03-08T01:50:35.913Z,132.00
2018-03-08T01:51:09.778Z,129.55
2018-03-08T01:51:49.377Z,135.05
2018-03-08T01:52:23.249Z,128.10
2018-03-08T01:52:57.096Z,144.52
2018-03-08T01:53:31.277Z,127.93
2018-03-08T01:54:05.172Z,151.90
2018-03-08T01:54:39.101Z,133.52
2018-03-08T01:55:12.967Z,145.90
2018-03-08T01:55:46.837Z,135.88
2018-03-08T01:56:20.711Z,145.05
2018-03-08T01:56:54.610Z,144.13
2018-03-08T01:57:28.481Z,142.05
2018-03-08T01:58:04.630Z,139.20
2018-03-08T01:58:38.508Z,148.15
2018-03-08T01:59:12.384Z,140.43
2018-03-08T01:59:46.246Z,152.15
2018-03-08T02:00:20.121Z,132.18
2018-03-08T02:00:58.916Z,146.07
2018-03-08T02:01:32.795Z,140.32
2018-03-08T02:02:06.663Z,137.82
2018-03-08T02:02:40.542Z,139.57
2018-03-08T02:03:14.560Z,137.45
2018-03-08T02:03:48.457Z,145.27
2018-03-08T02:04:22.320Z,142.02
2018-03-08T02:04:56.201Z,141.10
2018-03-08T02:05:30.059Z,130.30
2018-03-08T02:06:03.925Z,134.27
2018-03-08T02:06:37.800Z,151.05
2018-03-08T02:07:14.144Z,140.55
2018-03-08T02:07:50.159Z,136.05
2018-03-08T02:08:26.630Z,149.48
2018-03-08T02:09:01.053Z,147.60
2018-03-08T02:09:37.007Z,136.57
2018-03-08T02:10:12.967Z,147.30
2018-03-08T02:10:47.856Z,143.15
2018-03-08T02:11:21.738Z,150.60
2018-03-08T02:11:57.991Z,130.80
2018-03-08T02:12:33.299Z,131.55
2018-03-08T02:13:09.038Z,136.25
2018-03-08T02:13:45.224Z,136.05
2018-03-08T02:14:22.419Z,139.27
2018-03-08T02:14:58.329Z,142.60
2018-03-08T02:15:32.192Z,129.77
2018-03-08T02:16:06.069Z,140.37
2018-03-08T02:16:40.302Z,152.10
2018-03-08T02:17:14.789Z,137.18
2018-03-08T02:17:52.043Z,136.25
2018-03-08T02:18:28.526Z,146.37
2018-03-08T02:19:06.852Z,149.62
2018-03-08T02:19:43.939Z,144.15
2018-03-08T02:20:17.808Z,153.48
2018-03-08T02:20:51.695Z,152.48
2018-03-08T02:21:27.813Z,133.55
2018-03-08T02:22:03.156Z,143.68
2018-03-08T02:22:39.445Z,147.90
2018-03-08T02:23:16.240Z,142.57
2018-03-08T02:23:52.087Z,129.95
2018-03-08T02:24:28.349Z,135.90
2018-03-08T02:25:02.284Z,132.05
2018-03-08T02:25:36.166Z,143.40
2018-03-08T02:26:12.654Z,132.05
2018-03-08T02:26:49.156Z,142.73
2018-03-08T02:27:25.151Z,144.98
2018-03-08T02:27:59.016Z,140.55
2018-03-08T02:28:32.897Z,141.12
2018-03-08T02:29:06.763Z,153.48
2018-03-08T02:29:40.780Z,141.12
2018-03-08T02:30:14.657Z,145.15
2018-03-08T02:30:48.533Z,128.35
2018-03-08T02:31:22.392Z,146.87
2018-03-08T02:31:56.260Z,130.05
2018-03-08T02:32:30.141Z,129.10
2018-03-08T02:33:04.003Z,135.88
2018-03-08T02:33:37.858Z,140.15
2018-03-08T02:34:11.709Z,142.37
2018-03-08T02:34:45.567Z,143.50
2018-03-08T02:35:19.439Z,149.85
2018-03-08T02:35:53.309Z,146.52
2018-03-08T02:36:27.188Z,140.70
2018-03-08T02:37:01.057Z,136.27
2018-03-08T02:37:34.918Z,148.02
2018-03-08T02:38:08.784Z,146.40
2018-03-08T02:38:42.653Z,148.23
2018-03-08T02:39:16.518Z,145.30
2018-03-08T02:39:50.391Z,142.57
2018-03-08T02:40:24.286Z,142.30
2018-03-08T02:40:58.146Z,150.43
2018-03-08T02:41:32.013Z,130.57
2018-03-08T02:42:05.893Z,132.12
2018-03-08T02:42:39.761Z,152.07
2018-03-08T02:43:13.635Z,132.87
2018-03-08T02:43:47.515Z,149.45
2018-03-08T02:44:23.673Z,156.35
2018-03-08T02:44:57.551Z,133.18
2018-03-08T02:45:31.437Z,142.55
2018-03-08T02:46:05.298Z,133.90
2018-03-08T02:46:39.171Z,145.07
2018-03-08T02:47:13.033Z,143.45
2018-03-08T02:47:46.906Z,146.55
2018-03-08T02:48:20.761Z,145.50
2018-03-08T02:48:54.620Z,150.60
2018-03-08T02:49:28.490Z,140.65
2018-03-08T02:50:02.374Z,152.10
2018-03-08T02:50:36.255Z,155.32
2018-03-08T02:51:12.138Z,149.60
2018-03-08T02:51:46.485Z,139.40
2018-03-08T02:52:20.350Z,159.30
2018-03-08T02:52:54.271Z,156.30
2018-03-08T02:53:28.146Z,147.27
2018-03-08T02:54:02.033Z,149.60
2018-03-08T02:54:35.954Z,147.40
2018-03-08T02:55:09.835Z,144.77
2018-03-08T02:55:43.732Z,140.95
2018-03-08T02:56:17.598Z,147.65
2018-03-08T02:56:51.467Z,153.48
2018-03-08T02:57:25.327Z,145.02
2018-03-08T02:57:59.208Z,145.15
2018-03-08T02:58:33.103Z,169.55
2018-03-08T02:59:06.975Z,149.87
2018-03-08T02:59:40.860Z,148.02
2018-03-08T03:00:14.717Z,140.55
2018-03-08T03:00:48.606Z,147.00
2018-03-08T03:01:22.485Z,140.93
2018-03-08T03:01:56.346Z,150.43
2018-03-08T03:02:30.217Z,135.52
2018-03-08T03:03:04.083Z,146.25
2018-03-08T03:03:37.958Z,156.02
2018-03-08T03:04:11.832Z,153.60
2018-03-08T03:04:45.745Z,152.15
2018-03-08T03:05:19.615Z,150.18
2018-03-08T03:05:53.504Z,142.45
2018-03-08T03:06:27.370Z,150.65
2018-03-08T03:07:01.245Z,146.73
2018-03-08T03:07:35.107Z,140.15
2018-03-08T03:08:08.961Z,150.60
2018-03-08T03:08:42.927Z,149.85
2018-03-08T03:09:16.800Z,138.52
2018-03-08T03:09:50.702Z,146.32
2018-03-08T03:10:24.545Z,154.77
2018-03-08T03:10:58.430Z,145.32
2018-03-08T03:11:32.516Z,144.77
2018-03-08T03:12:06.391Z,137.60
2018-03-08T03:12:40.279Z,153.93
2018-03-08T03:13:14.150Z,142.75
2018-03-08T03:13:48.005Z,155.27
2018-03-08T03:14:21.876Z,140.98
2018-03-08T03:14:55.751Z,146.95
2018-03-08T03:15:29.611Z,135.32
2018-03-08T03:16:03.502Z,147.73
2018-03-08T03:16:38.672Z,151.07
2018-03-08T03:17:12.596Z,150.05
2018-03-08T03:17:46.492Z,146.62
2018-03-08T03:18:20.382Z,151.40
2018-03-08T03:18:54.244Z,150.60
2018-03-08T03:19:28.136Z,150.40
2018-03-08T03:20:02.021Z,153.95
2018-03-08T03:20:35.882Z,154.60
2018-03-08T03:21:09.756Z,139.48
2018-03-08T03:21:43.659Z,143.93
2018-03-08T03:22:17.541Z,148.98
2018-03-08T03:22:51.409Z,154.18
2018-03-08T03:23:25.301Z,159.60
2018-03-08T03:23:59.155Z,150.90
2018-03-08T03:24:33.021Z,149.60
2018-03-08T03:25:06.872Z,151.73
2018-03-08T03:25:40.757Z,160.45
2018-03-08T03:26:14.630Z,136.75
2018-03-08T03:26:48.507Z,142.98
2018-03-08T03:27:22.368Z,139.75
2018-03-08T03:27:56.245Z,133.12
2018-03-08T03:28:30.128Z,145.50
2018-03-08T03:29:04.081Z,154.77
2018-03-08T03:29:37.947Z,148.80
2018-03-08T03:30:11.829Z,143.40
2018-03-08T03:30:45.767Z,134.90
2018-03-08T03:31:19.651Z,151.57
2018-03-08T03:31:53.530Z,134.63
2018-03-08T03:32:27.406Z,142.70
2018-03-08T03:33:01.270Z,140.70
2018-03-08T03:33:35.142Z,139.35
2018-03-08T03:34:09.023Z,140.43
2018-03-08T03:34:42.898Z,144.30
2018-03-08T03:35:16.769Z,140.95
2018-03-08T03:35:50.630Z,142.87
2018-03-08T03:36:24.511Z,144.80
2018-03-08T03:36:58.380Z,149.57
2018-03-08T03:37:32.248Z,141.62
2018-03-08T03:38:06.104Z,138.10
2018-03-08T03:38:39.962Z,145.95
2018-03-08T03:39:13.840Z,144.93
2018-03-08T03:39:47.987Z,146.32
2018-03-08T03:40:21.852Z,137.25
2018-03-08T03:40:55.719Z,138.27
2018-03-08T03:41:29.676Z,129.35
2018-03-08T03:42:03.545Z,139.07
2018-03-08T03:42:37.400Z,144.32
2018-03-08T03:43:11.298Z,139.60
2018-03-08T03:43:45.182Z,154.60
2018-03-08T03:44:19.052Z,127.57
2018-03-08T03:44:52.915Z,137.93
2018-03-08T03:45:26.772Z,130.37
2018-03-08T03:46:00.657Z,134.77
2018-03-08T03:46:34.549Z,131.60
2018-03-08T03:47:08.409Z,134.45
2018-03-08T03:47:42.289Z,139.35
2018-03-08T03:48:16.149Z,142.65
2018-03-08T03:48:50.010Z,140.00
2018-03-08T03:49:23.883Z,128.98
2018-03-08T03:49:57.750Z,144.68
2018-03-08T03:50:31.690Z,138.85
2018-03-08T03:51:05.556Z,145.30
2018-03-08T03:51:39.465Z,142.65
2018-03-08T03:52:14.492Z,137.55
2018-03-08T03:52:51.592Z,137.73
2018-03-08T03:53:28.259Z,136.93
2018-03-08T03:54:04.863Z,140.35
2018-03-08T03:54:41.107Z,147.65
2018-03-08T03:55:18.272Z,133.68
2018-03-08T03:55:52.138Z,142.62
2018-03-08T03:56:26.684Z,140.50
2018-03-08T03:57:03.863Z,142.23
2018-03-08T03:57:38.466Z,148.70
2018-03-08T03:58:13.202Z,142.93
2018-03-08T03:58:49.638Z,144.55
2018-03-08T03:59:25.823Z,143.10
2018-03-08T04:00:02.061Z,133.23
2018-03-08T04:00:35.933Z,152.20
2018-03-08T04:01:10.202Z,140.62
2018-03-08T04:01:46.235Z,144.02
2018-03-08T04:02:22.126Z,131.63
2018-03-08T04:02:57.459Z,142.80
2018-03-08T04:03:34.528Z,136.62
2018-03-08T04:04:11.344Z,138.70
2018-03-08T04:04:47.901Z,142.82
2018-03-08T04:05:21.788Z,133.15
2018-03-08T04:05:57.573Z,138.68
2018-03-08T04:06:33.456Z,141.30
2018-03-08T04:07:09.522Z,141.50
2018-03-08T04:07:46.122Z,138.15
2018-03-08T04:08:21.905Z,140.00
2018-03-08T04:08:58.420Z,146.35
2018-03-08T04:09:32.276Z,149.35
2018-03-08T04:10:06.176Z,140.15
2018-03-08T04:10:42.393Z,134.65
2018-03-08T04:11:18.758Z,128.20
2018-03-08T04:11:55.386Z,137.98
2018-03-08T04:12:32.415Z,139.23
2018-03-08T04:13:09.226Z,137.02
2018-03-08T04:13:46.147Z,129.18
2018-03-08T04:14:20.004Z,142.98
2018-03-08T04:14:54.102Z,131.45
2018-03-08T04:15:29.102Z,137.37
2018-03-08T04:16:03.426Z,140.65
2018-03-08T04:16:39.871Z,138.00
2018-03-08T04:17:16.322Z,134.00
2018-03-08T04:17:51.031Z,132.50
2018-03-08T04:18:27.733Z,129.12
2018-03-08T04:19:01.618Z,135.68
2018-03-08T04:19:35.505Z,129.43
2018-03-08T04:20:10.671Z,138.07
2018-03-08T04:20:46.293Z,135.90
2018-03-08T04:21:23.425Z,134.50
2018-03-08T04:21:59.249Z,131.35
2018-03-08T04:22:33.112Z,130.77
2018-03-08T04:23:07.017Z,129.60
2018-03-08T04:23:40.906Z,122.97
2018-03-08T04:24:14.771Z,134.37
2018-03-08T04:24:48.645Z,147.43
2018-03-08T04:25:22.524Z,137.80
2018-03-08T04:25:56.401Z,138.40
2018-03-08T04:26:30.302Z,131.43
2018-03-08T04:27:04.197Z,123.22
2018-03-08T04:27:38.070Z,133.43
2018-03-08T04:28:11.932Z,129.48
2018-03-08T04:28:45.809Z,132.52
2018-03-08T04:29:19.686Z,127.65
2018-03-08T04:29:53.544Z,129.80
2018-03-08T04:30:27.710Z,136.48
2018-03-08T04:31:01.593Z,123.35
2018-03-08T04:31:35.470Z,131.18
2018-03-08T04:32:09.337Z,131.45
2018-03-08T04:32:43.226Z,129.35
2018-03-08T04:33:17.109Z,125.03
2018-03-08T04:33:50.986Z,130.90
2018-03-08T04:34:24.865Z,124.43
2018-03-08T04:35:01.980Z,122.75
2018-03-08T04:35:35.843Z,127.30
2018-03-08T04:36:09.696Z,125.68
2018-03-08T04:36:43.597Z,124.30
2018-03-08T04:37:17.456Z,120.72
2018-03-08T04:37:51.316Z,120.82
2018-03-08T04:38:25.224Z,118.80
2018-03-08T04:38:59.103Z,114.75
2018-03-08T04:39:32.978Z,115.07
2018-03-08T04:40:06.841Z,121.95
2018-03-08T04:40:40.721Z,127.03
2018-03-08T04:41:14.597Z,118.93
2018-03-08T04:41:48.488Z,114.47
2018-03-08T04:42:22.361Z,116.57
2018-03-08T04:42:56.238Z,124.05
2018-03-08T04:43:30.173Z,119.37
2018-03-08T04:44:04.074Z,123.75
2018-03-08T04:44:37.950Z,117.80
2018-03-08T04:45:11.859Z,112.90
2018-03-08T04:45:45.758Z,117.60
2018-03-08T04:46:19.630Z,112.82
2018-03-08T04:46:53.513Z,119.32
2018-03-08T04:47:27.397Z,120.62
2018-03-08T04:48:01.438Z,108.65
2018-03-08T04:48:35.296Z,111.55
2018-03-08T04:49:09.185Z,116.90
2018-03-08T04:49:43.122Z,116.82
2018-03-08T04:50:16.987Z,120.18
2018-03-08T04:50:51.013Z,109.90
2018-03-08T04:51:24.883Z,112.65
2018-03-08T04:51:58.771Z,110.97
2018-03-08T04:52:32.641Z,106.25
2018-03-08T04:53:06.503Z,120.07
2018-03-08T04:53:40.381Z,119.15
2018-03-08T04:54:14.257Z,118.60
2018-03-08T04:54:48.112Z,120.53
2018-03-08T04:55:22.003Z,114.72
2018-03-08T04:55:55.873Z,113.30
2018-03-08T04:56:29.735Z,123.95
2018-03-08T04:57:03.588Z,115.97
2018-03-08T04:57:37.443Z,122.30
2018-03-08T04:58:11.548Z,110.78
2018-03-08T04:58:45.412Z,110.28
2018-03-08T04:59:19.306Z,114.70
2018-03-08T04:59:53.184Z,122.97
2018-03-08T05:00:27.056Z,137.77
2018-03-08T05:01:00.912Z,124.43
2018-03-08T05:01:34.786Z,109.07
2018-03-08T05:02:08.657Z,120.75
2018-03-08T05:02:42.540Z,98.90
2018-03-08T05:03:16.416Z,116.43
2018-03-08T05:03:50.279Z,103.62
2018-03-08T05:04:24.155Z,98.57
2018-03-08T05:04:58.030Z,105.93
2018-03-08T05:05:31.898Z,109.85
2018-03-08T05:06:05.774Z,110.43
2018-03-08T05:06:39.637Z,104.72
2018-03-08T05:07:13.506Z,111.40
2018-03-08T05:07:47.363Z,97.10
2018-03-08T05:08:21.231Z,99.70
2018-03-08T05:08:55.152Z,125.15
2018-03-08T05:09:29.047Z,98.35
2018-03-08T05:10:05.766Z,110.15
2018-03-08T05:10:41.922Z,100.70
2018-03-08T05:11:15.797Z,102.32
2018-03-08T05:11:49.718Z,107.12
2018-03-08T05:12:23.588Z,96.30
2018-03-08T05:12:57.452Z,106.65
2018-03-08T05:13:31.339Z,103.25
2018-03-08T05:14:05.211Z,101.87
2018-03-08T05:14:39.112Z,100.28
2018-03-08T05:15:13.006Z,94.82
2018-03-08T05:15:46.863Z,95.87
2018-03-08T05:16:23.269Z,105.15
2018-03-08T05:16:57.146Z,104.65
2018-03-08T05:17:31.006Z,87.37
2018-03-08T05:18:04.879Z,113.60
2018-03-08T05:18:38.746Z,93.57
2018-03-08T05:19:12.607Z,103.65
2018-03-08T05:19:46.480Z,103.30
2018-03-08T05:20:20.341Z,79.15
2018-03-08T05:20:54.216Z,101.78
2018-03-08T05:21:28.077Z,90.03
2018-03-08T05:22:01.941Z,90.12
2018-03-08T05:22:35.812Z,87.10
2018-03-08T05:23:09.677Z,105.03
2018-03-08T05:23:43.604Z,87.00
2018-03-08T05:24:17.451Z,96.97
2018-03-08T05:24:51.346Z,87.78
2018-03-08T05:25:25.239Z,81.95
2018-03-08T05:25:59.114Z,80.40
2018-03-08T05:26:32.992Z,79.62
2018-03-08T05:27:06.888Z,89.10
2018-03-08T05:27:40.783Z,80.05
2018-03-08T05:28:14.640Z,77.87
2018-03-08T05:28:48.503Z,82.62
2018-03-08T05:29:22.360Z,74.95
2018-03-08T05:29:56.237Z,76.07
2018-03-08T05:30:30.111Z,76.53
2018-03-08T05:31:04.137Z,68.65
2018-03-08T05:31:38.002Z,75.85
2018-03-08T05:32:11.857Z,83.45
2018-03-08T05:32:45.721Z,71.07
2018-03-08T05:33:19.609Z,70.70
2018-03-08T05:33:53.479Z,79.53
2018-03-08T05:34:27.347Z,71.62
2018-03-08T05:35:01.222Z,76.47
2018-03-08T05:35:35.098Z,72.75
2018-03-08T05:36:08.956Z,74.78
2018-03-08T05:36:42.809Z,77.97
2018-03-08T05:37:16.678Z,84.82
2018-03-08T05:37:50.538Z,65.75
2018-03-08T05:38:24.667Z,70.87
2018-03-08T05:38:58.565Z,80.60
2018-03-08T05:39:32.429Z,68.05
2018-03-08T05:40:06.354Z,71.55
2018-03-08T05:40:40.217Z,69.10
2018-03-08T05:41:14.100Z,69.10
2018-03-08T05:41:48.332Z,66.30
2018-03-08T05:42:24.755Z,66.25
2018-03-08T05:42:59.486Z,67.72
2018-03-08T05:43:36.336Z,70.80
2018-03-08T05:44:12.740Z,69.65
2018-03-08T05:44:49.425Z,60.80
2018-03-08T05:45:25.031Z,64.00
2018-03-08T05:45:58.933Z,65.37
2018-03-08T05:46:36.140Z,62.92
2018-03-08T05:47:11.663Z,64.10
2018-03-08T05:47:48.543Z,62.33
2018-03-08T05:48:25.535Z,60.25
2018-03-08T05:49:01.954Z,64.95
2018-03-08T05:49:37.934Z,65.12
2018-03-08T05:50:11.787Z,62.97
2018-03-08T05:50:45.660Z,55.95
2018-03-08T05:51:21.957Z,63.50
2018-03-08T05:51:58.481Z,60.12
2018-03-08T05:52:35.332Z,62.92
2018-03-08T05:53:10.548Z,52.62
2018-03-08T05:53:47.277Z,59.05
2018-03-08T05:54:23.181Z,59.13
2018-03-08T05:54:57.029Z,58.70
2018-03-08T05:55:30.876Z,60.67
2018-03-08T05:56:07.362Z,62.53
2018-03-08T05:56:41.210Z,60.67
2018-03-08T05:57:15.056Z,56.42
2018-03-08T05:57:48.985Z,53.10
2018-03-08T05:58:22.851Z,60.63
2018-03-08T05:58:56.712Z,55.42
2018-03-08T05:59:30.558Z,54.20
2018-03-08T06:00:04.424Z,59.97
2018-03-08T06:00:38.568Z,61.17
2018-03-08T06:01:18.121Z,60.47
2018-03-08T06:01:51.999Z,54.75
2018-03-08T06:02:25.857Z,55.20
2018-03-08T06:02:59.712Z,51.85
2018-03-08T06:03:33.566Z,54.67
2018-03-08T06:04:07.445Z,53.40
2018-03-08T06:04:41.331Z,51.97
2018-03-08T06:05:15.366Z,62.85
2018-03-08T06:05:49.221Z,51.00
2018-03-08T06:06:23.106Z,52.53
2018-03-08T06:06:56.957Z,61.35
2018-03-08T06:07:30.830Z,52.20
2018-03-08T06:08:04.700Z,61.33
2018-03-08T06:08:38.553Z,57.35
2018-03-08T06:09:12.436Z,54.85
2018-03-08T06:09:46.322Z,54.28
2018-03-08T06:10:20.182Z,56.28
2018-03-08T06:10:54.036Z,53.03
2018-03-08T06:11:27.919Z,52.83
2018-03-08T06:12:01.785Z,52.33
2018-03-08T06:12:35.958Z,50.38
2018-03-08T06:13:09.825Z,52.42
2018-03-08T06:13:43.688Z,52.20
2018-03-08T06:14:17.543Z,53.63
2018-03-08T06:14:51.438Z,53.13
2018-03-08T06:15:25.291Z,55.85
2018-03-08T06:15:59.145Z,50.38
2018-03-08T06:16:33.029Z,55.17
2018-03-08T06:17:06.887Z,57.60
2018-03-08T06:17:40.743Z,54.88
2018-03-08T06:18:14.593Z,51.15
2018-03-08T06:18:48.532Z,53.53
2018-03-08T06:19:22.408Z,51.55
2018-03-08T06:19:56.263Z,47.13
2018-03-08T06:20:30.123Z,52.97
2018-03-08T06:21:04.008Z,54.53
2018-03-08T06:21:37.885Z,55.83
2018-03-08T06:22:11.757Z,50.85
2018-03-08T06:22:45.624Z,48.63
2018-03-08T06:23:19.512Z,53.08
2018-03-08T06:23:53.366Z,56.15
2018-03-08T06:24:27.260Z,53.33
2018-03-08T06:25:02.162Z,45.90
2018-03-08T06:25:36.032Z,49.60
2018-03-08T06:26:10.014Z,50.47
2018-03-08T06:26:43.878Z,51.08
2018-03-08T06:27:17.891Z,47.55
2018-03-08T06:27:51.757Z,47.85
2018-03-08T06:28:25.624Z,44.30
2018-03-08T06:28:59.478Z,43.38
2018-03-08T06:29:33.329Z,45.30
2018-03-08T06:30:07.192Z,45.55
2018-03-08T06:30:41.045Z,46.00
2018-03-08T06:31:15.056Z,47.28
2018-03-08T06:31:48.944Z,48.70
2018-03-08T06:32:22.820Z,45.42
2018-03-08T06:32:56.742Z,48.20
2018-03-08T06:33:30.592Z,45.35
2018-03-08T06:34:04.441Z,53.78
2018-03-08T06:34:38.301Z,44.03
2018-03-08T06:35:12.171Z,38.03
2018-03-08T06:35:46.044Z,39.63
2018-03-08T06:36:19.928Z,38.85
2018-03-08T06:36:53.815Z,44.40
2018-03-08T06:37:27.681Z,41.42
2018-03-08T06:38:01.543Z,44.15
2018-03-08T06:38:35.404Z,43.63
2018-03-08T06:39:09.275Z,40.58
2018-03-08T06:39:43.181Z,42.15
2018-03-08T06:40:17.041Z,37.67
2018-03-08T06:40:50.917Z,45.10
2018-03-08T06:41:24.816Z,39.45
2018-03-08T06:41:58.684Z,44.28
2018-03-08T06:42:32.655Z,38.38
2018-03-08T06:43:06.548Z,39.22
2018-03-08T06:43:40.421Z,38.95
2018-03-08T06:44:14.286Z,36.40
2018-03-08T06:44:48.192Z,42.20
2018-03-08T06:45:22.257Z,38.10
2018-03-08T06:45:56.113Z,40.33
2018-03-08T06:46:29.986Z,43.17
2018-03-08T06:47:03.870Z,35.35
2018-03-08T06:47:37.734Z,39.85
2018-03-08T06:48:11.593Z,37.85
2018-03-08T06:48:45.459Z,42.90
2018-03-08T06:49:19.339Z,39.97
2018-03-08T06:49:53.238Z,37.55
2018-03-08T06:50:27.100Z,40.30
2018-03-08T06:51:00.962Z,36.22
2018-03-08T06:51:36.792Z,38.25
2018-03-08T06:52:10.683Z,43.20
2018-03-08T06:52:44.569Z,41.08
2018-03-08T06:53:19.022Z,39.13
2018-03-08T06:53:55.275Z,38.17
2018-03-08T06:54:29.166Z,38.13
2018-03-08T06:55:03.013Z,35.92
2018-03-08T06:55:36.894Z,40.12
2018-03-08T06:56:10.757Z,33.88
2018-03-08T06:56:44.664Z,33.95
2018-03-08T06:57:18.537Z,38.75
2018-03-08T06:57:52.392Z,36.83
2018-03-08T06:58:26.263Z,36.22
2018-03-08T06:59:00.114Z,39.08
2018-03-08T06:59:33.978Z,39.38
2018-03-08T07:00:07.838Z,38.88
2018-03-08T07:00:41.714Z,31.95
2018-03-08T07:01:15.577Z,35.30
2018-03-08T07:01:49.456Z,36.30
2018-03-08T07:02:23.320Z,35.47
2018-03-08T07:02:57.183Z,38.20
2018-03-08T07:03:31.050Z,36.50
2018-03-08T07:04:04.915Z,34.88
2018-03-08T07:04:38.973Z,34.15
2018-03-08T07:05:12.880Z,36.75
2018-03-08T07:05:46.763Z,30.75
2018-03-08T07:06:20.662Z,34.22
2018-03-08T07:06:54.533Z,33.65
2018-03-08T07:07:28.408Z,32.85
2018-03-08T07:08:02.267Z,31.50
2018-03-08T07:08:36.136Z,34.95
2018-03-08T07:09:10.061Z,32.80
2018-03-08T07:09:43.998Z,33.00
2018-03-08T07:10:17.895Z,31.35
2018-03-08T07:10:51.784Z,32.70